sensor_id;sensor_type;location;lat;lon;timestamp;temperature;humidity
51337;DHT22;37421;51.176;17.196;2022-12-07T00:00:48;12.30;99.90
51337;DHT22;37421;51.176;17.196;2022-12-07T00:03:24;12.30;99.90
51337;DHT22;37421;51.176;17.196;2022-12-07T00:06:04;12.30;99.90
51337;DHT22;37421;51.176;17.196;2022-12-07T00:08:43;12.30;99.90
51337;DHT22;37421;51.176;17.196;2022-12-07T00:11:20;12.30;99.90
51337;DHT22;37421;51.176;17.196;2022-12-07T00:14:14;12.30;99.90
51337;DHT22;37421;51.176;17.196;2022-12-07T00:16:41;12.40;99.90
51337;DHT22;37421;51.176;17.196;2022-12-07T00:22:59;12.30;99.90
51337;DHT22;37421;51.176;17.196;2022-12-07T00:26:32;12.30;99.90
51337;DHT22;37421;51.176;17.196;2022-12-07T00:29:49;12.30;99.90
51337;DHT22;37421;51.176;17.196;2022-12-07T00:32:30;12.30;99.90
51337;DHT22;37421;51.176;17.196;2022-12-07T00:35:03;12.40;99.90
51337;DHT22;37421;51.176;17.196;2022-12-07T00:37:47;12.30;99.90
51337;DHT22;37421;51.176;17.196;2022-12-07T00:40:37;12.40;99.90
51337;DHT22;37421;51.176;17.196;2022-12-07T00:43:28;12.40;99.90
51337;DHT22;37421;51.176;17.196;2022-12-07T00:46:45;12.40;99.90
51337;DHT22;37421;51.176;17.196;2022-12-07T00:50:00;12.50;99.90
51337;DHT22;37421;51.176;17.196;2022-12-07T00:53:02;12.30;99.90
51337;DHT22;37421;51.176;17.196;2022-12-07T00:59:48;12.30;99.90
51337;DHT22;37421;51.176;17.196;2022-12-07T01:06:20;12.30;99.90
51337;DHT22;37421;51.176;17.196;2022-12-07T01:09:42;12.30;99.90
51337;DHT22;37421;51.176;17.196;2022-12-07T01:32:18;12.30;99.90
51337;DHT22;37421;51.176;17.196;2022-12-07T01:37:49;12.30;99.90
51337;DHT22;37421;51.176;17.196;2022-12-07T01:47:13;12.30;99.90
51337;DHT22;37421;51.176;17.196;2022-12-07T01:49:55;12.30;99.90
51337;DHT22;37421;51.176;17.196;2022-12-07T01:52:41;12.40;99.90
51337;DHT22;37421;51.176;17.196;2022-12-07T01:55:55;12.30;99.90
51337;DHT22;37421;51.176;17.196;2022-12-07T01:58:27;12.20;99.90
51337;DHT22;37421;51.176;17.196;2022-12-07T02:01:19;12.20;99.90
51337;DHT22;37421;51.176;17.196;2022-12-07T02:04:08;12.20;99.90
51337;DHT22;37421;51.176;17.196;2022-12-07T02:06:49;12.20;99.90
51337;DHT22;37421;51.176;17.196;2022-12-07T02:09:28;12.20;99.90
51337;DHT22;37421;51.176;17.196;2022-12-07T02:12:21;12.20;99.90
51337;DHT22;37421;51.176;17.196;2022-12-07T02:14:58;12.20;99.90
51337;DHT22;37421;51.176;17.196;2022-12-07T02:21:18;12.30;99.90
51337;DHT22;37421;51.176;17.196;2022-12-07T02:27:38;12.20;99.90
51337;DHT22;37421;51.176;17.196;2022-12-07T02:30:45;12.30;99.90
51337;DHT22;37421;51.176;17.196;2022-12-07T02:37:04;12.20;99.90
51337;DHT22;37421;51.176;17.196;2022-12-07T02:40:36;12.20;99.90
51337;DHT22;37421;51.176;17.196;2022-12-07T02:42:48;12.20;99.90
51337;DHT22;37421;51.176;17.196;2022-12-07T02:45:29;12.20;99.90
51337;DHT22;37421;51.176;17.196;2022-12-07T02:48:02;12.10;99.90
51337;DHT22;37421;51.176;17.196;2022-12-07T02:53:45;12.20;99.90
51337;DHT22;37421;51.176;17.196;2022-12-07T02:56:38;12.10;99.90
51337;DHT22;37421;51.176;17.196;2022-12-07T02:59:29;12.10;99.90
51337;DHT22;37421;51.176;17.196;2022-12-07T03:02:53;13.40;99.90
51337;DHT22;37421;51.176;17.196;2022-12-07T03:09:13;13.50;99.90
51337;DHT22;37421;51.176;17.196;2022-12-07T03:12:26;13.60;99.90
51337;DHT22;37421;51.176;17.196;2022-12-07T03:15:38;13.60;99.90
51337;DHT22;37421;51.176;17.196;2022-12-07T03:25:24;13.60;99.90
51337;DHT22;37421;51.176;17.196;2022-12-07T03:27:56;13.50;99.90
51337;DHT22;37421;51.176;17.196;2022-12-07T03:30:30;13.60;99.90
51337;DHT22;37421;51.176;17.196;2022-12-07T03:33:11;13.60;99.90
51337;DHT22;37421;51.176;17.196;2022-12-07T03:36:06;13.50;99.90
51337;DHT22;37421;51.176;17.196;2022-12-07T03:38:48;13.50;99.90
51337;DHT22;37421;51.176;17.196;2022-12-07T03:41:31;13.50;99.90
51337;DHT22;37421;51.176;17.196;2022-12-07T03:44:07;13.50;99.90
51337;DHT22;37421;51.176;17.196;2022-12-07T03:46:41;13.50;99.90
51337;DHT22;37421;51.176;17.196;2022-12-07T03:49:32;13.40;99.90
51337;DHT22;37421;51.176;17.196;2022-12-07T03:55:11;13.50;99.90
51337;DHT22;37421;51.176;17.196;2022-12-07T03:57:44;13.40;99.90
51337;DHT22;37421;51.176;17.196;2022-12-07T04:00:17;13.30;99.90
51337;DHT22;37421;51.176;17.196;2022-12-07T04:02:43;13.30;99.90
51337;DHT22;37421;51.176;17.196;2022-12-07T04:05:13;13.30;99.90
51337;DHT22;37421;51.176;17.196;2022-12-07T04:07:44;13.40;99.90
51337;DHT22;37421;51.176;17.196;2022-12-07T04:10:14;13.40;99.90
51337;DHT22;37421;51.176;17.196;2022-12-07T04:12:43;13.40;99.90
51337;DHT22;37421;51.176;17.196;2022-12-07T04:15:18;13.50;99.90
51337;DHT22;37421;51.176;17.196;2022-12-07T04:17:47;13.50;99.90
51337;DHT22;37421;51.176;17.196;2022-12-07T04:20:19;13.50;99.90
51337;DHT22;37421;51.176;17.196;2022-12-07T04:22:54;13.60;99.90
51337;DHT22;37421;51.176;17.196;2022-12-07T04:25:28;13.60;99.90
51337;DHT22;37421;51.176;17.196;2022-12-07T04:28:01;13.50;99.90
51337;DHT22;37421;51.176;17.196;2022-12-07T04:30:37;13.60;99.90
51337;DHT22;37421;51.176;17.196;2022-12-07T04:33:05;13.50;99.90
51337;DHT22;37421;51.176;17.196;2022-12-07T04:35:36;13.60;99.90
51337;DHT22;37421;51.176;17.196;2022-12-07T04:38:02;13.70;99.90
51337;DHT22;37421;51.176;17.196;2022-12-07T04:40:41;13.70;99.90
51337;DHT22;37421;51.176;17.196;2022-12-07T04:43:21;13.50;99.90
51337;DHT22;37421;51.176;17.196;2022-12-07T04:45:56;13.60;99.90
51337;DHT22;37421;51.176;17.196;2022-12-07T04:48:33;13.60;99.90
51337;DHT22;37421;51.176;17.196;2022-12-07T04:51:08;13.70;99.90
51337;DHT22;37421;51.176;17.196;2022-12-07T04:53:40;13.70;99.90
51337;DHT22;37421;51.176;17.196;2022-12-07T04:56:10;13.70;99.90
51337;DHT22;37421;51.176;17.196;2022-12-07T04:58:44;13.70;99.90
51337;DHT22;37421;51.176;17.196;2022-12-07T05:01:21;13.70;99.90
51337;DHT22;37421;51.176;17.196;2022-12-07T05:04:01;13.70;99.90
51337;DHT22;37421;51.176;17.196;2022-12-07T05:06:37;13.70;99.90
51337;DHT22;37421;51.176;17.196;2022-12-07T05:09:18;13.70;99.90
51337;DHT22;37421;51.176;17.196;2022-12-07T05:11:47;13.70;99.90
51337;DHT22;37421;51.176;17.196;2022-12-07T05:14:17;13.80;99.90
51337;DHT22;37421;51.176;17.196;2022-12-07T05:16:46;13.70;99.90
51337;DHT22;37421;51.176;17.196;2022-12-07T05:19:18;13.70;99.90
51337;DHT22;37421;51.176;17.196;2022-12-07T05:21:58;13.80;99.90
51337;DHT22;37421;51.176;17.196;2022-12-07T05:33:16;14.00;99.90
51337;DHT22;37421;51.176;17.196;2022-12-07T05:35:50;14.00;99.90
51337;DHT22;37421;51.176;17.196;2022-12-07T05:38:22;14.10;99.90
51337;DHT22;37421;51.176;17.196;2022-12-07T05:40:52;14.10;99.90
51337;DHT22;37421;51.176;17.196;2022-12-07T05:43:31;13.90;99.90
51337;DHT22;37421;51.176;17.196;2022-12-07T05:46:06;14.00;99.90
51337;DHT22;37421;51.176;17.196;2022-12-07T05:49:03;13.90;99.90
51337;DHT22;37421;51.176;17.196;2022-12-07T05:52:22;14.00;99.90
51337;DHT22;37421;51.176;17.196;2022-12-07T05:54:54;14.00;99.90
51337;DHT22;37421;51.176;17.196;2022-12-07T05:57:25;14.00;99.90
51337;DHT22;37421;51.176;17.196;2022-12-07T06:02:30;14.00;99.90
51337;DHT22;37421;51.176;17.196;2022-12-07T06:05:30;14.10;99.90
51337;DHT22;37421;51.176;17.196;2022-12-07T06:08:37;14.10;99.90
51337;DHT22;37421;51.176;17.196;2022-12-07T06:11:18;14.10;99.90
51337;DHT22;37421;51.176;17.196;2022-12-07T06:14:12;14.10;99.90
51337;DHT22;37421;51.176;17.196;2022-12-07T06:16:51;14.20;99.90
51337;DHT22;37421;51.176;17.196;2022-12-07T06:19:50;14.20;99.90
51337;DHT22;37421;51.176;17.196;2022-12-07T06:22:21;14.00;99.90
51337;DHT22;37421;51.176;17.196;2022-12-07T06:25:00;14.00;99.90
51337;DHT22;37421;51.176;17.196;2022-12-07T06:27:45;14.10;99.90
51337;DHT22;37421;51.176;17.196;2022-12-07T06:30:15;14.10;99.90
51337;DHT22;37421;51.176;17.196;2022-12-07T06:33:02;14.00;99.90
51337;DHT22;37421;51.176;17.196;2022-12-07T06:35:44;14.00;99.90
51337;DHT22;37421;51.176;17.196;2022-12-07T06:38:30;14.00;99.90
51337;DHT22;37421;51.176;17.196;2022-12-07T06:41:12;14.00;99.90
51337;DHT22;37421;51.176;17.196;2022-12-07T06:43:47;14.00;99.90
51337;DHT22;37421;51.176;17.196;2022-12-07T06:46:29;13.90;99.90
51337;DHT22;37421;51.176;17.196;2022-12-07T06:48:57;14.10;99.90
51337;DHT22;37421;51.176;17.196;2022-12-07T06:51:30;14.00;99.90
51337;DHT22;37421;51.176;17.196;2022-12-07T06:54:12;13.90;99.90
51337;DHT22;37421;51.176;17.196;2022-12-07T06:56:45;13.80;99.90
51337;DHT22;37421;51.176;17.196;2022-12-07T07:02:39;14.00;99.90
51337;DHT22;37421;51.176;17.196;2022-12-07T07:05:13;13.90;99.90
51337;DHT22;37421;51.176;17.196;2022-12-07T07:07:45;13.80;99.90
51337;DHT22;37421;51.176;17.196;2022-12-07T07:10:16;13.80;99.90
51337;DHT22;37421;51.176;17.196;2022-12-07T07:12:46;13.90;99.90
51337;DHT22;37421;51.176;17.196;2022-12-07T07:15:21;13.90;99.90
51337;DHT22;37421;51.176;17.196;2022-12-07T07:17:48;13.80;99.90
51337;DHT22;37421;51.176;17.196;2022-12-07T07:20:23;13.80;99.90
51337;DHT22;37421;51.176;17.196;2022-12-07T07:23:19;13.90;99.90
51337;DHT22;37421;51.176;17.196;2022-12-07T07:32:36;13.80;99.90
51337;DHT22;37421;51.176;17.196;2022-12-07T07:35:08;13.90;99.90
51337;DHT22;37421;51.176;17.196;2022-12-07T07:37:46;13.90;99.90
51337;DHT22;37421;51.176;17.196;2022-12-07T07:40:15;13.90;99.90
51337;DHT22;37421;51.176;17.196;2022-12-07T07:42:53;13.90;99.90
51337;DHT22;37421;51.176;17.196;2022-12-07T07:45:32;13.90;99.90
51337;DHT22;37421;51.176;17.196;2022-12-07T07:48:11;13.90;99.90
51337;DHT22;37421;51.176;17.196;2022-12-07T07:50:37;14.00;99.90
51337;DHT22;37421;51.176;17.196;2022-12-07T07:53:09;14.00;99.90
51337;DHT22;37421;51.176;17.196;2022-12-07T07:55:40;13.80;99.90
51337;DHT22;37421;51.176;17.196;2022-12-07T08:25:54;14.10;99.90
51337;DHT22;37421;51.176;17.196;2022-12-07T08:29:14;14.10;99.90
51337;DHT22;37421;51.176;17.196;2022-12-07T08:52:24;14.30;99.90
51337;DHT22;37421;51.176;17.196;2022-12-07T08:57:51;14.50;99.90
51337;DHT22;37421;51.176;17.196;2022-12-07T09:00:48;14.40;99.90
51337;DHT22;37421;51.176;17.196;2022-12-07T10:10:20;14.40;99.90
51337;DHT22;37421;51.176;17.196;2022-12-07T10:13:03;14.60;99.90
51337;DHT22;37421;51.176;17.196;2022-12-07T10:29:42;14.50;99.80
51337;DHT22;37421;51.176;17.196;2022-12-07T10:32:34;14.70;99.90
51337;DHT22;37421;51.176;17.196;2022-12-07T10:35:44;14.60;99.80
51337;DHT22;37421;51.176;17.196;2022-12-07T10:38:59;14.60;99.40
51337;DHT22;37421;51.176;17.196;2022-12-07T10:42:15;14.60;98.70
51337;DHT22;37421;51.176;17.196;2022-12-07T10:44:46;14.50;99.00
51337;DHT22;37421;51.176;17.196;2022-12-07T11:00:23;14.60;99.90
51337;DHT22;37421;51.176;17.196;2022-12-07T11:22:06;14.50;99.90
51337;DHT22;37421;51.176;17.196;2022-12-07T11:25:13;14.50;99.90
51337;DHT22;37421;51.176;17.196;2022-12-07T11:27:51;14.50;99.90
51337;DHT22;37421;51.176;17.196;2022-12-07T11:36:43;14.50;99.90
51337;DHT22;37421;51.176;17.196;2022-12-07T11:39:33;14.30;99.90
51337;DHT22;37421;51.176;17.196;2022-12-07T11:42:32;14.30;99.90
51337;DHT22;37421;51.176;17.196;2022-12-07T11:45:14;14.30;99.90
51337;DHT22;37421;51.176;17.196;2022-12-07T11:50:53;14.60;99.90
51337;DHT22;37421;51.176;17.196;2022-12-07T12:07:39;14.60;99.90
51337;DHT22;37421;51.176;17.196;2022-12-07T12:14:43;14.60;99.90
51337;DHT22;37421;51.176;17.196;2022-12-07T12:17:43;14.70;99.90
51337;DHT22;37421;51.176;17.196;2022-12-07T12:23:59;14.50;99.90
51337;DHT22;37421;51.176;17.196;2022-12-07T12:27:06;14.60;99.90
51337;DHT22;37421;51.176;17.196;2022-12-07T12:33:48;14.60;99.90
51337;DHT22;37421;51.176;17.196;2022-12-07T12:36:46;14.50;99.90
51337;DHT22;37421;51.176;17.196;2022-12-07T12:39:38;14.40;99.90
51337;DHT22;37421;51.176;17.196;2022-12-07T12:42:52;14.40;99.90
51337;DHT22;37421;51.176;17.196;2022-12-07T12:45:32;14.40;99.90
51337;DHT22;37421;51.176;17.196;2022-12-07T12:48:35;14.40;99.90
51337;DHT22;37421;51.176;17.196;2022-12-07T12:55:11;14.50;99.90
51337;DHT22;37421;51.176;17.196;2022-12-07T12:58:25;14.60;99.90
51337;DHT22;37421;51.176;17.196;2022-12-07T13:04:59;13.40;99.90
51337;DHT22;37421;51.176;17.196;2022-12-07T13:24:06;12.80;99.90
51337;DHT22;37421;51.176;17.196;2022-12-07T13:26:40;12.80;99.90
51337;DHT22;37421;51.176;17.196;2022-12-07T13:29:18;12.90;99.90
51337;DHT22;37421;51.176;17.196;2022-12-07T13:31:54;13.00;99.90
51337;DHT22;37421;51.176;17.196;2022-12-07T13:38:32;13.10;99.90
51337;DHT22;37421;51.176;17.196;2022-12-07T13:44:40;13.00;99.90
51337;DHT22;37421;51.176;17.196;2022-12-07T13:49:53;13.20;99.90
51337;DHT22;37421;51.176;17.196;2022-12-07T13:52:45;12.90;99.90
51337;DHT22;37421;51.176;17.196;2022-12-07T13:55:17;13.00;99.90
51337;DHT22;37421;51.176;17.196;2022-12-07T13:57:46;12.90;99.90
51337;DHT22;37421;51.176;17.196;2022-12-07T14:00:33;13.10;99.90
51337;DHT22;37421;51.176;17.196;2022-12-07T14:05:43;13.10;99.90
51337;DHT22;37421;51.176;17.196;2022-12-07T14:08:23;13.20;99.90
51337;DHT22;37421;51.176;17.196;2022-12-07T14:10:56;13.30;99.90
51337;DHT22;37421;51.176;17.196;2022-12-07T14:13:50;13.20;99.90
51337;DHT22;37421;51.176;17.196;2022-12-07T14:22:38;12.90;99.90
51337;DHT22;37421;51.176;17.196;2022-12-07T14:28:11;12.90;99.90
51337;DHT22;37421;51.176;17.196;2022-12-07T14:31:10;13.10;99.90
51337;DHT22;37421;51.176;17.196;2022-12-07T14:33:49;13.00;99.90
51337;DHT22;37421;51.176;17.196;2022-12-07T14:36:19;12.90;99.90
51337;DHT22;37421;51.176;17.196;2022-12-07T14:38:55;12.90;99.90
51337;DHT22;37421;51.176;17.196;2022-12-07T14:41:27;12.90;99.90
51337;DHT22;37421;51.176;17.196;2022-12-07T14:44:18;12.90;99.90
51337;DHT22;37421;51.176;17.196;2022-12-07T14:46:51;13.00;99.90
51337;DHT22;37421;51.176;17.196;2022-12-07T14:49:20;13.10;99.90
51337;DHT22;37421;51.176;17.196;2022-12-07T14:51:47;13.20;99.90
51337;DHT22;37421;51.176;17.196;2022-12-07T14:54:38;13.10;99.90
51337;DHT22;37421;51.176;17.196;2022-12-07T14:57:05;13.20;99.90
51337;DHT22;37421;51.176;17.196;2022-12-07T14:59:41;17.30;93.70
51337;DHT22;37421;51.176;17.196;2022-12-07T15:02:14;18.00;92.10
51337;DHT22;37421;51.176;17.196;2022-12-07T15:04:41;18.30;91.60
51337;DHT22;37421;51.176;17.196;2022-12-07T15:07:19;18.30;91.50
51337;DHT22;37421;51.176;17.196;2022-12-07T15:09:48;18.40;91.30
51337;DHT22;37421;51.176;17.196;2022-12-07T15:12:14;18.40;91.10
51337;DHT22;37421;51.176;17.196;2022-12-07T15:14:43;15.70;97.10
51337;DHT22;37421;51.176;17.196;2022-12-07T15:17:11;14.20;99.90
51337;DHT22;37421;51.176;17.196;2022-12-07T15:19:40;13.70;99.90
51337;DHT22;37421;51.176;17.196;2022-12-07T15:22:07;13.40;99.90
51337;DHT22;37421;51.176;17.196;2022-12-07T15:24:39;13.30;99.90
51337;DHT22;37421;51.176;17.196;2022-12-07T15:27:11;13.40;99.90
51337;DHT22;37421;51.176;17.196;2022-12-07T15:29:37;13.30;99.90
51337;DHT22;37421;51.176;17.196;2022-12-07T15:32:03;13.30;99.90
51337;DHT22;37421;51.176;17.196;2022-12-07T15:34:29;13.20;99.90
51337;DHT22;37421;51.176;17.196;2022-12-07T15:37:02;13.10;99.90
51337;DHT22;37421;51.176;17.196;2022-12-07T15:39:39;13.10;99.90
51337;DHT22;37421;51.176;17.196;2022-12-07T15:42:05;13.10;99.90
51337;DHT22;37421;51.176;17.196;2022-12-07T15:44:37;13.10;99.90
51337;DHT22;37421;51.176;17.196;2022-12-07T15:47:27;13.10;99.90
51337;DHT22;37421;51.176;17.196;2022-12-07T15:50:01;13.00;99.90
51337;DHT22;37421;51.176;17.196;2022-12-07T15:52:30;13.10;99.90
51337;DHT22;37421;51.176;17.196;2022-12-07T15:55:03;13.00;99.90
51337;DHT22;37421;51.176;17.196;2022-12-07T15:57:34;13.00;99.90
51337;DHT22;37421;51.176;17.196;2022-12-07T16:00:04;13.00;99.90
51337;DHT22;37421;51.176;17.196;2022-12-07T16:02:50;12.90;99.90
51337;DHT22;37421;51.176;17.196;2022-12-07T16:05:23;13.00;99.90
51337;DHT22;37421;51.176;17.196;2022-12-07T16:07:55;12.90;99.90
51337;DHT22;37421;51.176;17.196;2022-12-07T16:10:32;12.90;99.90
51337;DHT22;37421;51.176;17.196;2022-12-07T16:13:01;12.90;99.90
51337;DHT22;37421;51.176;17.196;2022-12-07T16:15:31;12.80;99.90
51337;DHT22;37421;51.176;17.196;2022-12-07T16:18:13;12.80;99.90
51337;DHT22;37421;51.176;17.196;2022-12-07T16:20:45;12.80;99.90
51337;DHT22;37421;51.176;17.196;2022-12-07T16:23:19;12.80;99.90
51337;DHT22;37421;51.176;17.196;2022-12-07T16:25:51;12.80;99.90
51337;DHT22;37421;51.176;17.196;2022-12-07T16:28:17;12.80;99.90
51337;DHT22;37421;51.176;17.196;2022-12-07T16:30:43;12.80;99.90
51337;DHT22;37421;51.176;17.196;2022-12-07T16:33:15;12.70;99.90
51337;DHT22;37421;51.176;17.196;2022-12-07T16:35:44;12.70;99.90
51337;DHT22;37421;51.176;17.196;2022-12-07T16:38:10;12.70;99.90
51337;DHT22;37421;51.176;17.196;2022-12-07T16:40:36;12.60;99.90
51337;DHT22;37421;51.176;17.196;2022-12-07T16:43:09;12.60;99.90
51337;DHT22;37421;51.176;17.196;2022-12-07T16:45:37;12.60;99.90
51337;DHT22;37421;51.176;17.196;2022-12-07T16:48:13;12.50;99.90
51337;DHT22;37421;51.176;17.196;2022-12-07T16:50:48;12.60;99.90
51337;DHT22;37421;51.176;17.196;2022-12-07T16:53:20;12.50;99.90
51337;DHT22;37421;51.176;17.196;2022-12-07T16:55:59;12.60;99.90
51337;DHT22;37421;51.176;17.196;2022-12-07T16:58:39;12.50;99.90
51337;DHT22;37421;51.176;17.196;2022-12-07T17:01:20;12.50;99.90
51337;DHT22;37421;51.176;17.196;2022-12-07T17:04:05;12.40;99.90
51337;DHT22;37421;51.176;17.196;2022-12-07T17:06:34;12.50;99.90
51337;DHT22;37421;51.176;17.196;2022-12-07T17:09:03;12.50;99.90
51337;DHT22;37421;51.176;17.196;2022-12-07T17:11:43;12.50;99.90
51337;DHT22;37421;51.176;17.196;2022-12-07T17:14:11;12.50;99.90
51337;DHT22;37421;51.176;17.196;2022-12-07T17:17:04;12.50;99.90
51337;DHT22;37421;51.176;17.196;2022-12-07T17:19:33;12.50;99.90
51337;DHT22;37421;51.176;17.196;2022-12-07T17:22:02;12.40;99.90
51337;DHT22;37421;51.176;17.196;2022-12-07T17:24:30;12.40;99.90
51337;DHT22;37421;51.176;17.196;2022-12-07T17:26:57;12.40;99.90
51337;DHT22;37421;51.176;17.196;2022-12-07T17:29:25;12.50;99.90
51337;DHT22;37421;51.176;17.196;2022-12-07T17:31:56;12.50;99.90
51337;DHT22;37421;51.176;17.196;2022-12-07T17:34:30;12.50;99.90
51337;DHT22;37421;51.176;17.196;2022-12-07T17:40:07;12.70;99.90
51337;DHT22;37421;51.176;17.196;2022-12-07T17:42:36;12.80;99.90
51337;DHT22;37421;51.176;17.196;2022-12-07T17:45:14;12.90;99.90
51337;DHT22;37421;51.176;17.196;2022-12-07T17:50:59;13.10;99.90
51337;DHT22;37421;51.176;17.196;2022-12-07T17:53:48;13.10;99.90
51337;DHT22;37421;51.176;17.196;2022-12-07T17:56:17;13.00;99.90
51337;DHT22;37421;51.176;17.196;2022-12-07T17:58:45;13.00;99.90
51337;DHT22;37421;51.176;17.196;2022-12-07T18:01:15;12.90;99.90
51337;DHT22;37421;51.176;17.196;2022-12-07T18:03:44;12.90;99.90
51337;DHT22;37421;51.176;17.196;2022-12-07T18:06:10;12.90;99.90
51337;DHT22;37421;51.176;17.196;2022-12-07T18:08:43;12.90;99.90
51337;DHT22;37421;51.176;17.196;2022-12-07T18:11:09;12.90;99.90
51337;DHT22;37421;51.176;17.196;2022-12-07T18:13:38;12.90;99.90
51337;DHT22;37421;51.176;17.196;2022-12-07T18:16:12;12.90;99.90
51337;DHT22;37421;51.176;17.196;2022-12-07T18:18:43;12.80;99.90
51337;DHT22;37421;51.176;17.196;2022-12-07T18:21:12;12.90;99.90
51337;DHT22;37421;51.176;17.196;2022-12-07T18:23:45;12.80;99.90
51337;DHT22;37421;51.176;17.196;2022-12-07T18:26:12;12.80;99.90
51337;DHT22;37421;51.176;17.196;2022-12-07T18:28:45;12.80;99.90
51337;DHT22;37421;51.176;17.196;2022-12-07T18:31:25;12.80;99.90
51337;DHT22;37421;51.176;17.196;2022-12-07T18:33:55;12.70;99.90
51337;DHT22;37421;51.176;17.196;2022-12-07T18:36:27;12.80;99.90
51337;DHT22;37421;51.176;17.196;2022-12-07T18:38:53;12.70;99.90
51337;DHT22;37421;51.176;17.196;2022-12-07T18:41:20;12.70;99.90
51337;DHT22;37421;51.176;17.196;2022-12-07T18:43:48;12.70;99.90
51337;DHT22;37421;51.176;17.196;2022-12-07T18:46:23;12.70;99.90
51337;DHT22;37421;51.176;17.196;2022-12-07T18:48:49;12.70;99.90
51337;DHT22;37421;51.176;17.196;2022-12-07T18:51:18;12.80;99.90
51337;DHT22;37421;51.176;17.196;2022-12-07T18:53:47;12.80;99.90
51337;DHT22;37421;51.176;17.196;2022-12-07T18:56:27;12.80;99.90
51337;DHT22;37421;51.176;17.196;2022-12-07T18:58:59;12.80;99.90
51337;DHT22;37421;51.176;17.196;2022-12-07T19:01:50;12.80;99.90
51337;DHT22;37421;51.176;17.196;2022-12-07T19:04:25;12.80;99.90
51337;DHT22;37421;51.176;17.196;2022-12-07T19:07:28;13.10;99.90
51337;DHT22;37421;51.176;17.196;2022-12-07T19:10:29;13.70;99.90
51337;DHT22;37421;51.176;17.196;2022-12-07T19:13:07;14.10;99.90
51337;DHT22;37421;51.176;17.196;2022-12-07T19:15:55;14.10;99.90
51337;DHT22;37421;51.176;17.196;2022-12-07T19:18:34;14.10;99.90
51337;DHT22;37421;51.176;17.196;2022-12-07T19:21:23;14.20;99.90
51337;DHT22;37421;51.176;17.196;2022-12-07T19:23:52;14.10;99.90
51337;DHT22;37421;51.176;17.196;2022-12-07T19:26:18;13.90;99.90
51337;DHT22;37421;51.176;17.196;2022-12-07T19:28:48;13.70;99.90
51337;DHT22;37421;51.176;17.196;2022-12-07T19:31:17;13.50;99.90
51337;DHT22;37421;51.176;17.196;2022-12-07T19:33:44;13.40;99.90
51337;DHT22;37421;51.176;17.196;2022-12-07T19:36:18;13.30;99.90
51337;DHT22;37421;51.176;17.196;2022-12-07T19:38:56;13.20;99.90
51337;DHT22;37421;51.176;17.196;2022-12-07T19:41:23;13.10;99.90
51337;DHT22;37421;51.176;17.196;2022-12-07T19:44:19;13.00;99.90
51337;DHT22;37421;51.176;17.196;2022-12-07T19:46:48;12.90;99.90
51337;DHT22;37421;51.176;17.196;2022-12-07T19:49:22;12.80;99.90
51337;DHT22;37421;51.176;17.196;2022-12-07T19:51:53;12.70;99.90
51337;DHT22;37421;51.176;17.196;2022-12-07T19:54:22;12.70;99.90
51337;DHT22;37421;51.176;17.196;2022-12-07T19:56:54;12.60;99.90
51337;DHT22;37421;51.176;17.196;2022-12-07T19:59:26;12.60;99.90
51337;DHT22;37421;51.176;17.196;2022-12-07T20:02:24;12.60;99.90
51337;DHT22;37421;51.176;17.196;2022-12-07T20:04:50;12.50;99.90
51337;DHT22;37421;51.176;17.196;2022-12-07T20:07:17;12.50;99.90
51337;DHT22;37421;51.176;17.196;2022-12-07T20:09:43;12.50;99.90
51337;DHT22;37421;51.176;17.196;2022-12-07T20:12:10;12.40;99.90
51337;DHT22;37421;51.176;17.196;2022-12-07T20:14:54;12.40;99.90
51337;DHT22;37421;51.176;17.196;2022-12-07T20:17:24;12.40;99.90
51337;DHT22;37421;51.176;17.196;2022-12-07T20:19:50;12.40;99.90
51337;DHT22;37421;51.176;17.196;2022-12-07T20:22:22;12.40;99.90
51337;DHT22;37421;51.176;17.196;2022-12-07T20:24:55;12.30;99.90
51337;DHT22;37421;51.176;17.196;2022-12-07T20:27:21;12.30;99.90
51337;DHT22;37421;51.176;17.196;2022-12-07T20:29:47;12.30;99.90
51337;DHT22;37421;51.176;17.196;2022-12-07T20:32:18;12.30;99.90
51337;DHT22;37421;51.176;17.196;2022-12-07T20:34:50;12.30;99.90
51337;DHT22;37421;51.176;17.196;2022-12-07T20:37:18;12.30;99.90
51337;DHT22;37421;51.176;17.196;2022-12-07T20:39:44;12.40;99.90
51337;DHT22;37421;51.176;17.196;2022-12-07T20:42:11;12.40;99.90
51337;DHT22;37421;51.176;17.196;2022-12-07T20:44:56;12.40;99.90
51337;DHT22;37421;51.176;17.196;2022-12-07T20:47:25;12.30;99.90
51337;DHT22;37421;51.176;17.196;2022-12-07T20:49:51;12.30;99.90
51337;DHT22;37421;51.176;17.196;2022-12-07T20:52:17;12.40;99.90
51337;DHT22;37421;51.176;17.196;2022-12-07T20:54:48;12.40;99.90
51337;DHT22;37421;51.176;17.196;2022-12-07T20:57:14;12.40;99.90
51337;DHT22;37421;51.176;17.196;2022-12-07T20:59:42;12.90;99.90
51337;DHT22;37421;51.176;17.196;2022-12-07T21:02:13;13.30;99.90
51337;DHT22;37421;51.176;17.196;2022-12-07T21:04:41;13.60;99.90
51337;DHT22;37421;51.176;17.196;2022-12-07T21:07:07;13.50;99.90
51337;DHT22;37421;51.176;17.196;2022-12-07T21:09:33;13.50;99.90
51337;DHT22;37421;51.176;17.196;2022-12-07T21:12:09;13.50;99.90
51337;DHT22;37421;51.176;17.196;2022-12-07T21:14:44;13.40;99.90
51337;DHT22;37421;51.176;17.196;2022-12-07T21:17:13;13.40;99.90
51337;DHT22;37421;51.176;17.196;2022-12-07T21:19:44;13.40;99.90
51337;DHT22;37421;51.176;17.196;2022-12-07T21:22:12;13.40;99.90
51337;DHT22;37421;51.176;17.196;2022-12-07T21:24:44;13.40;99.90
51337;DHT22;37421;51.176;17.196;2022-12-07T21:27:16;13.10;99.90
51337;DHT22;37421;51.176;17.196;2022-12-07T21:29:45;13.00;99.90
51337;DHT22;37421;51.176;17.196;2022-12-07T21:32:12;13.10;99.90
51337;DHT22;37421;51.176;17.196;2022-12-07T21:34:39;13.00;99.90
51337;DHT22;37421;51.176;17.196;2022-12-07T21:37:08;13.00;99.90
51337;DHT22;37421;51.176;17.196;2022-12-07T21:39:34;12.90;99.90
51337;DHT22;37421;51.176;17.196;2022-12-07T21:42:02;12.90;99.90
51337;DHT22;37421;51.176;17.196;2022-12-07T21:44:33;12.90;99.90
51337;DHT22;37421;51.176;17.196;2022-12-07T21:47:02;12.80;99.90
51337;DHT22;37421;51.176;17.196;2022-12-07T21:49:28;12.90;99.90
51337;DHT22;37421;51.176;17.196;2022-12-07T21:51:54;12.90;99.90
51337;DHT22;37421;51.176;17.196;2022-12-07T21:54:20;12.80;99.90
51337;DHT22;37421;51.176;17.196;2022-12-07T21:56:46;12.70;99.90
51337;DHT22;37421;51.176;17.196;2022-12-07T21:59:15;12.70;99.90
51337;DHT22;37421;51.176;17.196;2022-12-07T22:01:47;12.70;99.90